sensor_id;sensor_type;location;lat;lon;timestamp;temperature;humidity
8662;DHT22;29684;47.722;9.388;2023-03-14T00:00:11;8.80;99.90
8662;DHT22;29684;47.722;9.388;2023-03-14T00:02:56;8.70;99.90
8662;DHT22;29684;47.722;9.388;2023-03-14T00:05:40;8.60;99.90
8662;DHT22;29684;47.722;9.388;2023-03-14T00:08:24;8.50;99.90
8662;DHT22;29684;47.722;9.388;2023-03-14T00:11:11;8.40;99.90
8662;DHT22;29684;47.722;9.388;2023-03-14T00:13:56;8.40;99.90
8662;DHT22;29684;47.722;9.388;2023-03-14T00:16:40;8.20;99.90
8662;DHT22;29684;47.722;9.388;2023-03-14T00:19:24;8.20;99.90
8662;DHT22;29684;47.722;9.388;2023-03-14T00:22:08;8.20;99.90
8662;DHT22;29684;47.722;9.388;2023-03-14T00:24:52;8.30;99.90
8662;DHT22;29684;47.722;9.388;2023-03-14T00:27:36;8.20;99.90
8662;DHT22;29684;47.722;9.388;2023-03-14T00:30:20;8.20;99.90
8662;DHT22;29684;47.722;9.388;2023-03-14T00:33:05;8.20;99.90
8662;DHT22;29684;47.722;9.388;2023-03-14T00:36:04;8.20;99.90
8662;DHT22;29684;47.722;9.388;2023-03-14T00:38:50;8.10;99.90
8662;DHT22;29684;47.722;9.388;2023-03-14T00:41:34;8.10;99.90
8662;DHT22;29684;47.722;9.388;2023-03-14T00:44:18;8.10;99.90
8662;DHT22;29684;47.722;9.388;2023-03-14T00:47:03;8.10;99.90
8662;DHT22;29684;47.722;9.388;2023-03-14T00:49:47;8.00;99.90
8662;DHT22;29684;47.722;9.388;2023-03-14T00:52:32;8.00;99.90
8662;DHT22;29684;47.722;9.388;2023-03-14T00:55:16;8.00;99.90
8662;DHT22;29684;47.722;9.388;2023-03-14T00:58:01;8.00;99.90
8662;DHT22;29684;47.722;9.388;2023-03-14T01:00:45;8.00;99.90
8662;DHT22;29684;47.722;9.388;2023-03-14T01:03:30;8.10;99.90
8662;DHT22;29684;47.722;9.388;2023-03-14T01:06:16;8.00;99.90
8662;DHT22;29684;47.722;9.388;2023-03-14T01:09:01;8.00;99.90
8662;DHT22;29684;47.722;9.388;2023-03-14T01:11:45;8.00;99.90
8662;DHT22;29684;47.722;9.388;2023-03-14T01:14:30;8.00;99.90
8662;DHT22;29684;47.722;9.388;2023-03-14T01:17:14;7.90;99.90
8662;DHT22;29684;47.722;9.388;2023-03-14T01:19:59;7.90;99.90
8662;DHT22;29684;47.722;9.388;2023-03-14T01:22:44;7.80;99.90
8662;DHT22;29684;47.722;9.388;2023-03-14T01:25:28;7.80;99.90
8662;DHT22;29684;47.722;9.388;2023-03-14T01:28:14;7.80;99.90
8662;DHT22;29684;47.722;9.388;2023-03-14T01:31:05;7.80;99.90
8662;DHT22;29684;47.722;9.388;2023-03-14T01:33:50;7.80;99.90
8662;DHT22;29684;47.722;9.388;2023-03-14T01:36:35;7.80;99.90
8662;DHT22;29684;47.722;9.388;2023-03-14T01:39:19;7.70;99.90
8662;DHT22;29684;47.722;9.388;2023-03-14T01:42:03;7.70;99.90
8662;DHT22;29684;47.722;9.388;2023-03-14T01:44:55;7.70;99.90
8662;DHT22;29684;47.722;9.388;2023-03-14T01:47:39;7.60;99.90
8662;DHT22;29684;47.722;9.388;2023-03-14T01:50:23;7.70;99.90
8662;DHT22;29684;47.722;9.388;2023-03-14T01:53:08;7.60;99.90
8662;DHT22;29684;47.722;9.388;2023-03-14T01:55:53;7.60;99.90
8662;DHT22;29684;47.722;9.388;2023-03-14T01:58:42;7.60;99.90
8662;DHT22;29684;47.722;9.388;2023-03-14T02:01:28;7.60;99.90
8662;DHT22;29684;47.722;9.388;2023-03-14T02:04:14;7.60;99.90
8662;DHT22;29684;47.722;9.388;2023-03-14T02:10:19;7.60;99.90
8662;DHT22;29684;47.722;9.388;2023-03-14T02:13:05;7.60;99.90
8662;DHT22;29684;47.722;9.388;2023-03-14T02:15:50;7.50;99.90
8662;DHT22;29684;47.722;9.388;2023-03-14T02:18:34;7.60;99.90
8662;DHT22;29684;47.722;9.388;2023-03-14T02:21:42;7.50;99.90
8662;DHT22;29684;47.722;9.388;2023-03-14T02:24:50;7.50;99.90
8662;DHT22;29684;47.722;9.388;2023-03-14T02:27:38;7.40;99.90
8662;DHT22;29684;47.722;9.388;2023-03-14T02:30:25;7.40;99.90
8662;DHT22;29684;47.722;9.388;2023-03-14T02:33:14;7.40;99.90
8662;DHT22;29684;47.722;9.388;2023-03-14T02:36:02;7.40;99.90
8662;DHT22;29684;47.722;9.388;2023-03-14T02:41:36;7.40;99.90
8662;DHT22;29684;47.722;9.388;2023-03-14T02:44:20;7.40;99.90
8662;DHT22;29684;47.722;9.388;2023-03-14T02:47:04;7.50;99.90
8662;DHT22;29684;47.722;9.388;2023-03-14T02:49:49;7.40;99.90
8662;DHT22;29684;47.722;9.388;2023-03-14T02:52:34;7.50;99.90
8662;DHT22;29684;47.722;9.388;2023-03-14T02:55:22;7.50;99.90
8662;DHT22;29684;47.722;9.388;2023-03-14T02:58:07;7.60;99.90
8662;DHT22;29684;47.722;9.388;2023-03-14T03:00:52;7.60;99.90
8662;DHT22;29684;47.722;9.388;2023-03-14T03:03:36;7.60;99.90
8662;DHT22;29684;47.722;9.388;2023-03-14T03:06:20;7.60;99.90
8662;DHT22;29684;47.722;9.388;2023-03-14T03:09:05;7.60;99.90
8662;DHT22;29684;47.722;9.388;2023-03-14T03:11:49;7.60;99.90
8662;DHT22;29684;47.722;9.388;2023-03-14T03:14:33;7.60;99.90
8662;DHT22;29684;47.722;9.388;2023-03-14T03:17:18;7.60;99.90
8662;DHT22;29684;47.722;9.388;2023-03-14T03:20:02;7.50;99.90
8662;DHT22;29684;47.722;9.388;2023-03-14T03:22:49;7.50;99.90
8662;DHT22;29684;47.722;9.388;2023-03-14T03:25:33;7.50;99.90
8662;DHT22;29684;47.722;9.388;2023-03-14T03:28:18;7.40;99.90
8662;DHT22;29684;47.722;9.388;2023-03-14T03:31:10;7.50;99.90
8662;DHT22;29684;47.722;9.388;2023-03-14T03:33:56;7.50;99.90
8662;DHT22;29684;47.722;9.388;2023-03-14T03:36:41;7.50;99.90
8662;DHT22;29684;47.722;9.388;2023-03-14T03:39:25;7.50;99.90
8662;DHT22;29684;47.722;9.388;2023-03-14T03:42:09;7.50;99.90
8662;DHT22;29684;47.722;9.388;2023-03-14T03:44:54;7.50;99.90
8662;DHT22;29684;47.722;9.388;2023-03-14T03:47:38;7.50;99.90
8662;DHT22;29684;47.722;9.388;2023-03-14T03:50:22;7.50;99.90
8662;DHT22;29684;47.722;9.388;2023-03-14T03:53:06;7.50;99.90
8662;DHT22;29684;47.722;9.388;2023-03-14T03:55:50;7.60;99.90
8662;DHT22;29684;47.722;9.388;2023-03-14T03:58:34;7.60;99.90
8662;DHT22;29684;47.722;9.388;2023-03-14T04:01:19;7.50;99.90
8662;DHT22;29684;47.722;9.388;2023-03-14T04:04:03;7.60;99.90
8662;DHT22;29684;47.722;9.388;2023-03-14T04:06:47;7.80;99.90
8662;DHT22;29684;47.722;9.388;2023-03-14T04:09:32;7.80;99.90
8662;DHT22;29684;47.722;9.388;2023-03-14T04:12:16;7.90;99.90
8662;DHT22;29684;47.722;9.388;2023-03-14T04:15:00;7.90;99.90
8662;DHT22;29684;47.722;9.388;2023-03-14T04:17:44;7.90;99.90
8662;DHT22;29684;47.722;9.388;2023-03-14T04:20:28;8.00;99.90
8662;DHT22;29684;47.722;9.388;2023-03-14T04:23:12;8.00;99.90
8662;DHT22;29684;47.722;9.388;2023-03-14T04:25:56;8.00;99.90
8662;DHT22;29684;47.722;9.388;2023-03-14T04:28:41;8.00;99.90
8662;DHT22;29684;47.722;9.388;2023-03-14T04:31:25;8.00;99.90
8662;DHT22;29684;47.722;9.388;2023-03-14T04:34:09;7.90;99.90
8662;DHT22;29684;47.722;9.388;2023-03-14T04:36:53;7.80;99.90
8662;DHT22;29684;47.722;9.388;2023-03-14T04:39:37;7.80;99.90
8662;DHT22;29684;47.722;9.388;2023-03-14T04:42:21;7.80;99.90
8662;DHT22;29684;47.722;9.388;2023-03-14T04:45:06;7.80;99.90
8662;DHT22;29684;47.722;9.388;2023-03-14T04:47:50;7.80;99.90
8662;DHT22;29684;47.722;9.388;2023-03-14T04:50:34;7.80;99.90
8662;DHT22;29684;47.722;9.388;2023-03-14T04:53:18;7.80;99.90
8662;DHT22;29684;47.722;9.388;2023-03-14T04:56:03;7.70;99.90
8662;DHT22;29684;47.722;9.388;2023-03-14T04:58:47;7.70;99.90
8662;DHT22;29684;47.722;9.388;2023-03-14T05:01:31;7.70;99.90
8662;DHT22;29684;47.722;9.388;2023-03-14T05:04:15;7.60;99.90
8662;DHT22;29684;47.722;9.388;2023-03-14T05:07:00;7.60;99.90
8662;DHT22;29684;47.722;9.388;2023-03-14T05:09:44;7.50;99.90
8662;DHT22;29684;47.722;9.388;2023-03-14T05:12:28;7.40;99.90
8662;DHT22;29684;47.722;9.388;2023-03-14T05:15:12;7.40;99.90
8662;DHT22;29684;47.722;9.388;2023-03-14T05:17:56;7.40;99.90
8662;DHT22;29684;47.722;9.388;2023-03-14T05:20:40;7.40;99.90
8662;DHT22;29684;47.722;9.388;2023-03-14T05:23:24;7.40;99.90
8662;DHT22;29684;47.722;9.388;2023-03-14T05:26:09;7.40;99.90
8662;DHT22;29684;47.722;9.388;2023-03-14T05:28:53;7.40;99.90
8662;DHT22;29684;47.722;9.388;2023-03-14T05:31:37;7.20;99.90
8662;DHT22;29684;47.722;9.388;2023-03-14T05:34:21;7.30;99.90
8662;DHT22;29684;47.722;9.388;2023-03-14T05:37:05;7.30;99.90
8662;DHT22;29684;47.722;9.388;2023-03-14T05:39:50;7.30;99.90
8662;DHT22;29684;47.722;9.388;2023-03-14T05:42:34;7.30;99.90
8662;DHT22;29684;47.722;9.388;2023-03-14T05:45:18;7.30;99.90
8662;DHT22;29684;47.722;9.388;2023-03-14T05:48:02;7.30;99.90
8662;DHT22;29684;47.722;9.388;2023-03-14T05:50:47;7.30;99.90
8662;DHT22;29684;47.722;9.388;2023-03-14T05:53:32;7.40;99.90
8662;DHT22;29684;47.722;9.388;2023-03-14T05:56:16;7.30;99.90
8662;DHT22;29684;47.722;9.388;2023-03-14T05:59:00;7.30;99.90
8662;DHT22;29684;47.722;9.388;2023-03-14T06:01:47;7.30;99.90
8662;DHT22;29684;47.722;9.388;2023-03-14T06:04:31;7.30;99.90
8662;DHT22;29684;47.722;9.388;2023-03-14T06:07:15;7.30;99.90
8662;DHT22;29684;47.722;9.388;2023-03-14T06:10:00;7.30;99.90
8662;DHT22;29684;47.722;9.388;2023-03-14T06:12:44;7.40;99.90
8662;DHT22;29684;47.722;9.388;2023-03-14T06:15:28;7.40;99.90
8662;DHT22;29684;47.722;9.388;2023-03-14T06:18:12;7.40;99.90
8662;DHT22;29684;47.722;9.388;2023-03-14T06:20:57;7.50;99.90
8662;DHT22;29684;47.722;9.388;2023-03-14T06:23:41;7.50;99.90
8662;DHT22;29684;47.722;9.388;2023-03-14T06:26:26;7.60;99.90
8662;DHT22;29684;47.722;9.388;2023-03-14T06:29:10;7.70;99.90
8662;DHT22;29684;47.722;9.388;2023-03-14T06:31:54;7.60;99.90
8662;DHT22;29684;47.722;9.388;2023-03-14T06:34:39;7.60;99.90
8662;DHT22;29684;47.722;9.388;2023-03-14T06:37:24;7.70;99.90
8662;DHT22;29684;47.722;9.388;2023-03-14T06:40:10;7.70;99.90
8662;DHT22;29684;47.722;9.388;2023-03-14T06:42:54;7.80;99.90
8662;DHT22;29684;47.722;9.388;2023-03-14T06:45:38;7.70;99.90
8662;DHT22;29684;47.722;9.388;2023-03-14T06:48:22;7.80;99.90
8662;DHT22;29684;47.722;9.388;2023-03-14T06:51:06;7.80;99.90
8662;DHT22;29684;47.722;9.388;2023-03-14T06:53:51;8.00;99.90
8662;DHT22;29684;47.722;9.388;2023-03-14T06:56:35;8.00;99.90
8662;DHT22;29684;47.722;9.388;2023-03-14T06:59:19;8.00;99.90
8662;DHT22;29684;47.722;9.388;2023-03-14T07:02:03;8.00;99.90
8662;DHT22;29684;47.722;9.388;2023-03-14T07:04:47;7.90;99.90
8662;DHT22;29684;47.722;9.388;2023-03-14T07:07:31;7.90;99.90
8662;DHT22;29684;47.722;9.388;2023-03-14T07:10:16;7.80;99.90
8662;DHT22;29684;47.722;9.388;2023-03-14T07:13:01;8.00;99.90
8662;DHT22;29684;47.722;9.388;2023-03-14T07:15:45;8.10;99.90
8662;DHT22;29684;47.722;9.388;2023-03-14T07:18:29;9.40;99.90
8662;DHT22;29684;47.722;9.388;2023-03-14T07:21:13;8.30;99.90
8662;DHT22;29684;47.722;9.388;2023-03-14T07:23:57;8.30;99.90
8662;DHT22;29684;47.722;9.388;2023-03-14T07:26:41;8.40;99.90
8662;DHT22;29684;47.722;9.388;2023-03-14T07:29:26;8.40;99.90
8662;DHT22;29684;47.722;9.388;2023-03-14T07:32:10;8.50;99.90
8662;DHT22;29684;47.722;9.388;2023-03-14T07:34:58;8.50;99.90
8662;DHT22;29684;47.722;9.388;2023-03-14T07:37:42;8.60;99.90
8662;DHT22;29684;47.722;9.388;2023-03-14T07:40:26;8.60;99.90
8662;DHT22;29684;47.722;9.388;2023-03-14T07:43:10;8.70;99.90
8662;DHT22;29684;47.722;9.388;2023-03-14T07:45:54;8.70;99.90
8662;DHT22;29684;47.722;9.388;2023-03-14T07:48:38;8.70;99.90
8662;DHT22;29684;47.722;9.388;2023-03-14T07:51:22;8.70;99.90
8662;DHT22;29684;47.722;9.388;2023-03-14T07:54:06;8.70;99.90
8662;DHT22;29684;47.722;9.388;2023-03-14T07:56:51;8.80;99.90
8662;DHT22;29684;47.722;9.388;2023-03-14T07:59:36;8.80;99.90
8662;DHT22;29684;47.722;9.388;2023-03-14T08:02:20;8.90;99.90
8662;DHT22;29684;47.722;9.388;2023-03-14T08:05:06;9.10;99.90
8662;DHT22;29684;47.722;9.388;2023-03-14T08:07:50;9.10;99.90
8662;DHT22;29684;47.722;9.388;2023-03-14T08:10:34;9.30;99.90
8662;DHT22;29684;47.722;9.388;2023-03-14T08:13:18;9.40;99.90
8662;DHT22;29684;47.722;9.388;2023-03-14T08:16:04;9.40;99.90
8662;DHT22;29684;47.722;9.388;2023-03-14T08:18:48;9.60;99.90
8662;DHT22;29684;47.722;9.388;2023-03-14T08:21:32;9.50;99.90
8662;DHT22;29684;47.722;9.388;2023-03-14T08:24:16;9.50;99.90
8662;DHT22;29684;47.722;9.388;2023-03-14T08:27:00;9.50;99.90
8662;DHT22;29684;47.722;9.388;2023-03-14T08:29:44;9.60;99.90
8662;DHT22;29684;47.722;9.388;2023-03-14T08:32:29;9.70;99.90
8662;DHT22;29684;47.722;9.388;2023-03-14T08:35:14;9.70;99.90
8662;DHT22;29684;47.722;9.388;2023-03-14T08:37:58;9.70;99.90
8662;DHT22;29684;47.722;9.388;2023-03-14T08:40:42;9.60;99.90
8662;DHT22;29684;47.722;9.388;2023-03-14T08:43:27;9.60;99.90
8662;DHT22;29684;47.722;9.388;2023-03-14T08:46:11;9.60;99.90
8662;DHT22;29684;47.722;9.388;2023-03-14T08:48:56;9.60;99.90
8662;DHT22;29684;47.722;9.388;2023-03-14T08:51:40;9.50;99.90
8662;DHT22;29684;47.722;9.388;2023-03-14T08:54:24;9.60;99.90
8662;DHT22;29684;47.722;9.388;2023-03-14T08:57:08;9.60;99.90
8662;DHT22;29684;47.722;9.388;2023-03-14T08:59:52;9.80;99.90
8662;DHT22;29684;47.722;9.388;2023-03-14T09:02:36;10.00;99.90
8662;DHT22;29684;47.722;9.388;2023-03-14T09:05:20;10.20;99.90
8662;DHT22;29684;47.722;9.388;2023-03-14T09:08:04;10.10;99.90
8662;DHT22;29684;47.722;9.388;2023-03-14T09:10:49;10.20;99.90
8662;DHT22;29684;47.722;9.388;2023-03-14T09:13:33;10.30;99.90
8662;DHT22;29684;47.722;9.388;2023-03-14T09:16:17;10.30;99.90
8662;DHT22;29684;47.722;9.388;2023-03-14T09:19:02;10.50;99.90
8662;DHT22;29684;47.722;9.388;2023-03-14T09:21:46;10.70;99.90
8662;DHT22;29684;47.722;9.388;2023-03-14T09:24:31;10.80;99.90
8662;DHT22;29684;47.722;9.388;2023-03-14T09:27:15;10.80;99.90
8662;DHT22;29684;47.722;9.388;2023-03-14T09:30:00;10.80;99.90
8662;DHT22;29684;47.722;9.388;2023-03-14T09:32:44;10.80;99.90
8662;DHT22;29684;47.722;9.388;2023-03-14T09:35:28;11.00;99.90
8662;DHT22;29684;47.722;9.388;2023-03-14T09:38:12;11.10;99.90
8662;DHT22;29684;47.722;9.388;2023-03-14T09:40:59;11.20;99.90
8662;DHT22;29684;47.722;9.388;2023-03-14T09:43:45;11.20;99.90
8662;DHT22;29684;47.722;9.388;2023-03-14T09:46:32;11.10;99.90
8662;DHT22;29684;47.722;9.388;2023-03-14T09:49:26;11.20;99.90
8662;DHT22;29684;47.722;9.388;2023-03-14T09:52:15;11.10;99.90
8662;DHT22;29684;47.722;9.388;2023-03-14T09:55:05;11.00;99.90
8662;DHT22;29684;47.722;9.388;2023-03-14T09:58:03;11.10;99.90
8662;DHT22;29684;47.722;9.388;2023-03-14T10:00:55;11.20;99.90
8662;DHT22;29684;47.722;9.388;2023-03-14T10:03:42;11.20;99.90
8662;DHT22;29684;47.722;9.388;2023-03-14T10:06:30;11.10;99.90
8662;DHT22;29684;47.722;9.388;2023-03-14T10:09:21;11.00;99.90
8662;DHT22;29684;47.722;9.388;2023-03-14T10:12:13;11.00;99.90
8662;DHT22;29684;47.722;9.388;2023-03-14T10:15:03;11.00;99.90
8662;DHT22;29684;47.722;9.388;2023-03-14T10:17:49;10.90;99.90
8662;DHT22;29684;47.722;9.388;2023-03-14T10:20:36;10.90;99.90
8662;DHT22;29684;47.722;9.388;2023-03-14T10:23:29;10.80;99.90
8662;DHT22;29684;47.722;9.388;2023-03-14T10:26:18;10.80;99.90
8662;DHT22;29684;47.722;9.388;2023-03-14T10:29:11;10.80;99.90
8662;DHT22;29684;47.722;9.388;2023-03-14T10:32:05;10.80;99.90
8662;DHT22;29684;47.722;9.388;2023-03-14T10:38:02;10.80;99.90
8662;DHT22;29684;47.722;9.388;2023-03-14T10:40:49;10.80;99.90
8662;DHT22;29684;47.722;9.388;2023-03-14T10:43:36;10.70;99.90
8662;DHT22;29684;47.722;9.388;2023-03-14T10:46:24;10.70;99.90
8662;DHT22;29684;47.722;9.388;2023-03-14T10:49:25;10.60;99.90
8662;DHT22;29684;47.722;9.388;2023-03-14T10:55:10;10.50;99.90
8662;DHT22;29684;47.722;9.388;2023-03-14T10:57:54;10.50;99.90
8662;DHT22;29684;47.722;9.388;2023-03-14T11:00:39;10.50;99.90
8662;DHT22;29684;47.722;9.388;2023-03-14T11:03:24;10.50;99.90
8662;DHT22;29684;47.722;9.388;2023-03-14T11:06:20;10.50;99.90
8662;DHT22;29684;47.722;9.388;2023-03-14T11:09:39;10.40;99.90
8662;DHT22;29684;47.722;9.388;2023-03-14T11:25:26;9.60;99.90
8662;DHT22;29684;47.722;9.388;2023-03-14T11:28:18;9.50;99.90
8662;DHT22;29684;47.722;9.388;2023-03-14T11:31:27;9.50;99.90
8662;DHT22;29684;47.722;9.388;2023-03-14T11:34:17;9.40;99.90
8662;DHT22;29684;47.722;9.388;2023-03-14T11:37:12;9.40;99.90
8662;DHT22;29684;47.722;9.388;2023-03-14T11:43:17;9.30;99.90
8662;DHT22;29684;47.722;9.388;2023-03-14T11:46:13;9.20;99.90
8662;DHT22;29684;47.722;9.388;2023-03-14T11:52:12;9.00;99.90
8662;DHT22;29684;47.722;9.388;2023-03-14T11:57:46;8.70;99.90
8662;DHT22;29684;47.722;9.388;2023-03-14T12:00:31;8.50;99.90
8662;DHT22;29684;47.722;9.388;2023-03-14T12:09:24;8.20;99.90
8662;DHT22;29684;47.722;9.388;2023-03-14T12:12:14;8.10;99.90
8662;DHT22;29684;47.722;9.388;2023-03-14T12:15:02;8.10;99.90
8662;DHT22;29684;47.722;9.388;2023-03-14T12:17:55;8.00;99.90
8662;DHT22;29684;47.722;9.388;2023-03-14T12:20:39;8.00;99.90
8662;DHT22;29684;47.722;9.388;2023-03-14T12:23:25;8.00;99.90
8662;DHT22;29684;47.722;9.388;2023-03-14T12:26:16;9.20;99.90
8662;DHT22;29684;47.722;9.388;2023-03-14T12:34:45;7.50;99.90
8662;DHT22;29684;47.722;9.388;2023-03-14T12:37:33;7.40;99.90
8662;DHT22;29684;47.722;9.388;2023-03-14T12:40:35;7.30;99.90
8662;DHT22;29684;47.722;9.388;2023-03-14T12:43:26;7.30;99.90
8662;DHT22;29684;47.722;9.388;2023-03-14T12:51:46;7.00;99.90
8662;DHT22;29684;47.722;9.388;2023-03-14T12:54:36;7.10;99.90
8662;DHT22;29684;47.722;9.388;2023-03-14T13:00:19;7.10;99.90
8662;DHT22;29684;47.722;9.388;2023-03-14T13:03:23;7.10;99.90
8662;DHT22;29684;47.722;9.388;2023-03-14T13:06:11;7.20;99.90
8662;DHT22;29684;47.722;9.388;2023-03-14T13:08:56;7.20;99.90
8662;DHT22;29684;47.722;9.388;2023-03-14T13:11:42;7.40;99.90
8662;DHT22;29684;47.722;9.388;2023-03-14T13:14:31;7.30;99.90
8662;DHT22;29684;47.722;9.388;2023-03-14T13:17:22;7.40;99.90
8662;DHT22;29684;47.722;9.388;2023-03-14T13:20:14;7.50;99.90
8662;DHT22;29684;47.722;9.388;2023-03-14T13:23:00;7.60;99.90
8662;DHT22;29684;47.722;9.388;2023-03-14T13:25:45;7.70;99.90
8662;DHT22;29684;47.722;9.388;2023-03-14T13:28:31;7.70;99.90
8662;DHT22;29684;47.722;9.388;2023-03-14T13:31:24;7.80;99.90
8662;DHT22;29684;47.722;9.388;2023-03-14T13:34:10;7.80;99.90
8662;DHT22;29684;47.722;9.388;2023-03-14T13:36:55;7.80;99.90
8662;DHT22;29684;47.722;9.388;2023-03-14T13:39:39;7.30;99.90
8662;DHT22;29684;47.722;9.388;2023-03-14T13:42:28;6.50;99.90
8662;DHT22;29684;47.722;9.388;2023-03-14T13:45:14;6.30;99.90
8662;DHT22;29684;47.722;9.388;2023-03-14T13:47:58;5.90;99.90
8662;DHT22;29684;47.722;9.388;2023-03-14T13:50:50;5.70;99.90
8662;DHT22;29684;47.722;9.388;2023-03-14T13:53:50;5.50;99.90
8662;DHT22;29684;47.722;9.388;2023-03-14T13:56:34;6.60;99.90
8662;DHT22;29684;47.722;9.388;2023-03-14T13:59:32;5.40;99.90
8662;DHT22;29684;47.722;9.388;2023-03-14T14:02:24;5.40;99.90
8662;DHT22;29684;47.722;9.388;2023-03-14T14:05:10;5.50;99.90
8662;DHT22;29684;47.722;9.388;2023-03-14T14:07:55;5.70;99.90
8662;DHT22;29684;47.722;9.388;2023-03-14T14:10:40;6.00;99.90
8662;DHT22;29684;47.722;9.388;2023-03-14T14:13:24;6.10;99.90
8662;DHT22;29684;47.722;9.388;2023-03-14T14:16:12;6.10;99.90
8662;DHT22;29684;47.722;9.388;2023-03-14T14:18:58;6.30;99.90
8662;DHT22;29684;47.722;9.388;2023-03-14T14:21:44;6.50;99.90
8662;DHT22;29684;47.722;9.388;2023-03-14T14:24:31;6.50;99.90
8662;DHT22;29684;47.722;9.388;2023-03-14T14:27:19;6.60;99.90
8662;DHT22;29684;47.722;9.388;2023-03-14T14:33:17;7.10;99.90
8662;DHT22;29684;47.722;9.388;2023-03-14T14:36:02;7.60;99.90
8662;DHT22;29684;47.722;9.388;2023-03-14T14:38:57;8.50;99.90
8662;DHT22;29684;47.722;9.388;2023-03-14T14:41:42;8.40;99.90
8662;DHT22;29684;47.722;9.388;2023-03-14T14:44:28;8.40;99.90
8662;DHT22;29684;47.722;9.388;2023-03-14T14:47:15;9.10;99.90
8662;DHT22;29684;47.722;9.388;2023-03-14T14:50:04;9.60;99.90
8662;DHT22;29684;47.722;9.388;2023-03-14T14:52:48;9.00;99.90
8662;DHT22;29684;47.722;9.388;2023-03-14T14:55:38;8.90;99.90
8662;DHT22;29684;47.722;9.388;2023-03-14T15:01:19;9.30;99.90
8662;DHT22;29684;47.722;9.388;2023-03-14T15:04:09;9.40;99.90
8662;DHT22;29684;47.722;9.388;2023-03-14T15:06:55;9.10;99.90
8662;DHT22;29684;47.722;9.388;2023-03-14T15:09:42;9.10;99.90
8662;DHT22;29684;47.722;9.388;2023-03-14T15:12:26;9.00;99.90
8662;DHT22;29684;47.722;9.388;2023-03-14T15:15:14;9.20;99.90
8662;DHT22;29684;47.722;9.388;2023-03-14T15:17:59;9.00;99.90
8662;DHT22;29684;47.722;9.388;2023-03-14T15:20:44;8.80;99.90
8662;DHT22;29684;47.722;9.388;2023-03-14T15:23:29;8.60;99.90
8662;DHT22;29684;47.722;9.388;2023-03-14T15:26:17;8.50;99.90
8662;DHT22;29684;47.722;9.388;2023-03-14T15:29:02;8.30;99.90
8662;DHT22;29684;47.722;9.388;2023-03-14T15:31:46;8.10;99.90
8662;DHT22;29684;47.722;9.388;2023-03-14T15:34:30;8.10;99.90
8662;DHT22;29684;47.722;9.388;2023-03-14T15:37:16;8.20;99.90
8662;DHT22;29684;47.722;9.388;2023-03-14T15:40:01;8.40;99.90
8662;DHT22;29684;47.722;9.388;2023-03-14T15:42:48;8.50;99.90
8662;DHT22;29684;47.722;9.388;2023-03-14T15:45:32;8.80;99.90
8662;DHT22;29684;47.722;9.388;2023-03-14T15:48:19;9.20;99.90
8662;DHT22;29684;47.722;9.388;2023-03-14T15:51:04;9.00;99.90
8662;DHT22;29684;47.722;9.388;2023-03-14T15:53:48;8.70;99.90
8662;DHT22;29684;47.722;9.388;2023-03-14T15:56:33;8.50;99.90
8662;DHT22;29684;47.722;9.388;2023-03-14T15:59:18;8.30;99.90
8662;DHT22;29684;47.722;9.388;2023-03-14T16:02:02;8.30;99.90
8662;DHT22;29684;47.722;9.388;2023-03-14T16:04:46;8.70;99.90
8662;DHT22;29684;47.722;9.388;2023-03-14T16:07:30;8.40;99.90
8662;DHT22;29684;47.722;9.388;2023-03-14T16:10:15;8.50;99.90
8662;DHT22;29684;47.722;9.388;2023-03-14T16:12:59;8.30;99.90
8662;DHT22;29684;47.722;9.388;2023-03-14T16:15:53;8.40;99.90
8662;DHT22;29684;47.722;9.388;2023-03-14T16:18:38;8.50;99.90
8662;DHT22;29684;47.722;9.388;2023-03-14T16:21:23;8.30;99.90
8662;DHT22;29684;47.722;9.388;2023-03-14T16:24:07;8.30;99.90
8662;DHT22;29684;47.722;9.388;2023-03-14T16:26:51;8.30;99.90
8662;DHT22;29684;47.722;9.388;2023-03-14T16:29:35;8.30;99.90
8662;DHT22;29684;47.722;9.388;2023-03-14T16:32:20;8.30;99.90
8662;DHT22;29684;47.722;9.388;2023-03-14T16:35:05;8.50;99.90
8662;DHT22;29684;47.722;9.388;2023-03-14T16:37:50;8.20;99.90
8662;DHT22;29684;47.722;9.388;2023-03-14T16:40:34;8.20;99.90
8662;DHT22;29684;47.722;9.388;2023-03-14T16:43:18;8.10;99.90
8662;DHT22;29684;47.722;9.388;2023-03-14T16:46:03;8.20;99.90
8662;DHT22;29684;47.722;9.388;2023-03-14T16:48:48;8.20;99.90
8662;DHT22;29684;47.722;9.388;2023-03-14T16:51:32;8.20;99.90
8662;DHT22;29684;47.722;9.388;2023-03-14T16:54:16;8.20;99.90
8662;DHT22;29684;47.722;9.388;2023-03-14T16:57:00;8.10;99.90
8662;DHT22;29684;47.722;9.388;2023-03-14T16:59:45;8.00;99.90
8662;DHT22;29684;47.722;9.388;2023-03-14T17:02:29;7.90;99.90
8662;DHT22;29684;47.722;9.388;2023-03-14T17:05:14;7.80;99.90
8662;DHT22;29684;47.722;9.388;2023-03-14T17:07:58;7.80;99.90
8662;DHT22;29684;47.722;9.388;2023-03-14T17:10:43;7.80;99.90
8662;DHT22;29684;47.722;9.388;2023-03-14T17:13:27;7.70;99.90
8662;DHT22;29684;47.722;9.388;2023-03-14T17:16:12;7.70;99.90
8662;DHT22;29684;47.722;9.388;2023-03-14T17:18:56;7.70;99.90
8662;DHT22;29684;47.722;9.388;2023-03-14T17:21:41;7.70;99.90
8662;DHT22;29684;47.722;9.388;2023-03-14T17:24:25;7.70;99.90
8662;DHT22;29684;47.722;9.388;2023-03-14T17:27:09;7.70;99.90
8662;DHT22;29684;47.722;9.388;2023-03-14T17:29:54;7.70;99.90
8662;DHT22;29684;47.722;9.388;2023-03-14T17:32:37;7.60;99.90
8662;DHT22;29684;47.722;9.388;2023-03-14T17:35:22;7.60;99.90
8662;DHT22;29684;47.722;9.388;2023-03-14T17:38:06;7.70;99.90
8662;DHT22;29684;47.722;9.388;2023-03-14T17:40:50;7.50;99.90
8662;DHT22;29684;47.722;9.388;2023-03-14T17:43:34;7.60;99.90
8662;DHT22;29684;47.722;9.388;2023-03-14T17:46:19;7.60;99.90
8662;DHT22;29684;47.722;9.388;2023-03-14T17:49:03;7.60;99.90
8662;DHT22;29684;47.722;9.388;2023-03-14T17:51:47;7.60;99.90
8662;DHT22;29684;47.722;9.388;2023-03-14T17:54:31;7.70;99.90
8662;DHT22;29684;47.722;9.388;2023-03-14T17:57:16;7.60;99.90
8662;DHT22;29684;47.722;9.388;2023-03-14T18:00:00;7.50;99.90
8662;DHT22;29684;47.722;9.388;2023-03-14T18:02:44;7.40;99.90
8662;DHT22;29684;47.722;9.388;2023-03-14T18:05:28;7.50;99.90
8662;DHT22;29684;47.722;9.388;2023-03-14T18:08:14;7.20;99.90
8662;DHT22;29684;47.722;9.388;2023-03-14T18:10:58;7.00;99.90
8662;DHT22;29684;47.722;9.388;2023-03-14T18:13:43;6.90;99.90
8662;DHT22;29684;47.722;9.388;2023-03-14T18:16:27;6.80;99.90
8662;DHT22;29684;47.722;9.388;2023-03-14T18:19:12;6.60;99.90
8662;DHT22;29684;47.722;9.388;2023-03-14T18:21:56;6.00;99.90
8662;DHT22;29684;47.722;9.388;2023-03-14T18:24:40;6.10;99.90
8662;DHT22;29684;47.722;9.388;2023-03-14T18:27:25;6.00;99.90
8662;DHT22;29684;47.722;9.388;2023-03-14T18:30:09;6.00;99.90
8662;DHT22;29684;47.722;9.388;2023-03-14T18:32:54;6.00;99.90
8662;DHT22;29684;47.722;9.388;2023-03-14T18:35:38;6.00;99.90
8662;DHT22;29684;47.722;9.388;2023-03-14T18:38:22;6.00;99.90
8662;DHT22;29684;47.722;9.388;2023-03-14T18:41:08;6.00;99.90
8662;DHT22;29684;47.722;9.388;2023-03-14T18:43:53;6.10;99.90
8662;DHT22;29684;47.722;9.388;2023-03-14T18:46:38;6.10;99.90
8662;DHT22;29684;47.722;9.388;2023-03-14T18:49:22;6.10;99.90
8662;DHT22;29684;47.722;9.388;2023-03-14T18:52:06;6.10;99.90
8662;DHT22;29684;47.722;9.388;2023-03-14T18:54:50;6.00;99.90
8662;DHT22;29684;47.722;9.388;2023-03-14T18:57:35;6.00;99.90
8662;DHT22;29684;47.722;9.388;2023-03-14T19:00:19;5.90;99.90